TFM - Tactical Decision Aid
ID: Runway Winds: CIG/VIS Threshold:

KHKS - Jackson/Hawkins Fld, MS, US

Updated at: 1426 UTC 10 Jul 2020
Latest TAF at: 1120 UTC 10 Jul 2020

TAF Board

Time1353Z 10/15Z 10/16Z 10/17Z 10/18Z 10/19Z 10/20Z 10/21Z 10/22Z 10/23Z 11/00Z 11/01Z 11/02Z 11/03Z>>
Type OBS PRVL PRVL PRVL PRVL PRVL PRVL PRVL PRVL PRVL PRVL PRVL PRVL PRVL
VIS 8 >6 >6 >6 >6 >6 >6 >6 >6 >6 >6 >6 >6 >6
CIG 13 45 45 45 40 40 40 40 40 -- -- -- -- --
Cover BKN BKN BKN BKN BKN BKN BKN BKN BKN SCT SCT SCT SCT SCT
FltCat MVFR VFR VFR VFR VFR VFR VFR VFR VFR VFR VFR VFR VFR VFR
WX -- -- -- -- VCTS VCTS VCTS VCTS VCTS -- -- -- -- --
WDir 280 240 240 240 300 300 300 300 300 310 310 310 310 310
WSpd 9 6 6 6 8 8 8 8 8 3 3 3 3 3
WGst -- -- -- -- -- -- -- -- -- -- -- -- -- --

TDA Impact Legend

  None Marginal Slight Moderate High
Visibility (sm) >5 3≤X≤5 2≤X<3 0.5≤X<2 <0.5
Ceiling (100 ft) >30 10≤X≤30 6≤X<10 2≤X<6 <2
Wind Speed (kt) <15 15≤X<25 25≤X<30 ≥30
Wind Gust (kt) <15 15≤X<25 25≤X<35 ≥35
Weather No Wx Reported VCTS -TS,-FZRA TS,FZRA +TS,+FZRA
TAF
KHKS 101120Z 1012/1112 24006KT P6SM BKN045
  FM101800 30008KT P6SM VCTS BKN040CB
  FM102300 31003KT P6SM SCT050


METAR
KHKS 101353Z 28009KT 8SM BKN013 BKN038 29/24 A3003 RMK AO2 SLP160 T02890244
KHKS 101253Z 27006KT 7SM OVC042 27/24 A3002 RMK AO2 SLP157 T02720239
KHKS 101153Z 26005KT 7SM BKN036 BKN046 26/24 A3001 RMK AO2 SLP152 T02610239 10272 20261 51013